createdAt,value
2018-06-27T00:01:30.928Z,26.19
2018-06-27T00:03:59.817Z,26.19
2018-06-27T00:06:28.508Z,26.18
2018-06-27T00:08:57.296Z,26.18
2018-06-27T00:11:26.006Z,26.17
2018-06-27T00:13:54.802Z,26.16
2018-06-27T00:16:23.466Z,26.17
2018-06-27T00:18:52.252Z,26.16
2018-06-27T00:21:21.148Z,26.15
2018-06-27T00:23:49.908Z,26.15
2018-06-27T00:26:18.733Z,26.16
2018-06-27T00:28:47.569Z,26.14
2018-06-27T00:31:16.301Z,26.15
2018-06-27T00:33:45.050Z,26.15
2018-06-27T00:36:13.646Z,26.14
2018-06-27T00:38:42.420Z,26.14
2018-06-27T00:41:11.224Z,26.14
2018-06-27T00:43:39.865Z,26.13
2018-06-27T00:46:08.537Z,26.14
2018-06-27T00:48:37.362Z,26.13
2018-06-27T00:51:06.288Z,26.13
2018-06-27T00:53:40.148Z,26.12
2018-06-27T00:56:08.938Z,26.11
2018-06-27T00:58:37.633Z,26.11
2018-06-27T01:01:06.292Z,26.10
2018-06-27T01:03:35.315Z,26.10
2018-06-27T01:06:04.123Z,26.10
2018-06-27T01:08:32.762Z,26.10
2018-06-27T01:11:01.533Z,26.08
2018-06-27T01:13:30.212Z,26.08
2018-06-27T01:15:59.021Z,26.07
2018-06-27T01:18:27.796Z,26.07
2018-06-27T01:20:56.537Z,26.07
2018-06-27T01:23:25.458Z,26.07
2018-06-27T01:25:54.264Z,26.06
2018-06-27T01:28:23.084Z,26.06
2018-06-27T01:30:51.816Z,26.05
2018-06-27T01:33:20.665Z,26.05
2018-06-27T01:35:49.445Z,26.03
2018-06-27T01:38:18.202Z,26.03
2018-06-27T01:40:46.968Z,26.03
2018-06-27T01:43:15.784Z,26.03
2018-06-27T01:45:44.518Z,26.02
2018-06-27T01:48:13.233Z,26.02
2018-06-27T01:50:42.109Z,26.01
2018-06-27T01:53:10.830Z,26.01
2018-06-27T01:55:39.563Z,26.02
2018-06-27T01:58:08.254Z,26.00
2018-06-27T02:00:36.931Z,26.02
2018-06-27T02:03:05.873Z,26.00
2018-06-27T02:05:34.552Z,25.99
2018-06-27T02:08:03.321Z,25.98
2018-06-27T02:10:32.180Z,25.98
2018-06-27T02:13:00.850Z,25.99
2018-06-27T02:15:29.577Z,25.97
2018-06-27T02:17:58.335Z,25.96
2018-06-27T02:20:27.080Z,25.95
2018-06-27T02:23:01.590Z,25.94
2018-06-27T02:25:30.343Z,25.94
2018-06-27T02:27:59.329Z,25.94
2018-06-27T02:30:28.028Z,25.93
2018-06-27T02:32:56.821Z,25.93
2018-06-27T02:35:25.592Z,25.93
2018-06-27T02:37:54.356Z,25.92
2018-06-27T02:40:23.208Z,25.92
2018-06-27T02:42:52.111Z,25.90
2018-06-27T02:45:20.842Z,25.89
2018-06-27T02:47:49.652Z,25.89
2018-06-27T02:50:18.701Z,25.89
2018-06-27T02:52:47.302Z,25.88
2018-06-27T02:55:16.015Z,25.87
2018-06-27T02:57:44.843Z,25.87
2018-06-27T03:00:16.504Z,25.86
2018-06-27T03:02:46.706Z,25.85
2018-06-27T03:05:15.431Z,25.85
2018-06-27T03:07:45.118Z,25.82
2018-06-27T03:10:13.946Z,25.83
2018-06-27T03:12:42.684Z,25.83
2018-06-27T03:15:11.310Z,25.83
2018-06-27T03:17:40.122Z,25.82
2018-06-27T03:20:08.959Z,25.80
2018-06-27T03:22:37.815Z,25.80
2018-06-27T03:25:06.565Z,25.81
2018-06-27T03:27:35.510Z,25.81
2018-06-27T03:30:04.369Z,25.79
2018-06-27T03:32:33.241Z,25.79
2018-06-27T03:35:02.902Z,25.78
2018-06-27T03:37:31.772Z,25.79
2018-06-27T03:40:00.643Z,25.77
2018-06-27T03:42:29.297Z,25.77
2018-06-27T03:44:58.079Z,25.77
2018-06-27T03:47:26.743Z,25.77
2018-06-27T03:49:55.303Z,25.77
2018-06-27T03:52:24.252Z,25.76
2018-06-27T03:54:52.854Z,25.75
2018-06-27T03:57:21.439Z,25.74
2018-06-27T03:59:50.017Z,25.75
2018-06-27T04:02:18.575Z,25.74
2018-06-27T04:04:47.185Z,25.73
2018-06-27T04:07:15.749Z,25.72
2018-06-27T04:09:44.279Z,25.72
2018-06-27T04:12:12.829Z,25.69
2018-06-27T04:14:41.583Z,25.71
2018-06-27T04:17:10.084Z,25.70
2018-06-27T04:19:38.629Z,25.70
2018-06-27T04:22:07.191Z,25.71
2018-06-27T04:24:35.743Z,25.69
2018-06-27T04:27:04.316Z,25.69
2018-06-27T04:29:32.853Z,25.68
2018-06-27T04:32:01.428Z,25.69
2018-06-27T04:34:36.322Z,25.69
2018-06-27T04:37:04.921Z,25.69
2018-06-27T04:39:33.573Z,25.68
2018-06-27T04:42:02.182Z,25.67
2018-06-27T04:44:30.717Z,25.69
2018-06-27T04:46:59.285Z,25.69
2018-06-27T04:49:28.008Z,25.70
2018-06-27T04:51:56.975Z,25.68
2018-06-27T04:54:26.025Z,25.68
2018-06-27T04:56:55.613Z,25.69
2018-06-27T04:59:24.349Z,25.68
2018-06-27T05:01:53.838Z,25.68
2018-06-27T05:04:22.689Z,25.67
2018-06-27T05:06:51.460Z,25.68
2018-06-27T05:09:20.213Z,25.68
2018-06-27T05:11:49.297Z,25.68
2018-06-27T05:14:18.035Z,25.67
2018-06-27T05:16:47.429Z,25.67
2018-06-27T05:19:15.929Z,25.68
2018-06-27T05:21:44.780Z,25.67
2018-06-27T05:24:13.374Z,25.66
2018-06-27T05:26:41.961Z,25.66
2018-06-27T05:29:10.601Z,25.66
2018-06-27T05:31:39.129Z,25.64
2018-06-27T05:34:07.875Z,25.65
2018-06-27T05:36:36.477Z,25.64
2018-06-27T05:39:08.341Z,25.63
2018-06-27T05:41:37.033Z,25.63
2018-06-27T05:44:05.718Z,25.61
2018-06-27T05:46:34.453Z,25.62
2018-06-27T05:49:03.130Z,25.61
2018-06-27T05:51:31.848Z,25.62
2018-06-27T05:54:00.532Z,25.62
2018-06-27T05:56:29.185Z,25.61
2018-06-27T05:58:57.925Z,25.59
2018-06-27T06:01:26.588Z,25.61
2018-06-27T06:03:55.369Z,25.62
2018-06-27T06:06:24.062Z,25.63
2018-06-27T06:08:52.814Z,25.63
2018-06-27T06:11:21.577Z,25.65
2018-06-27T06:13:50.236Z,25.66
2018-06-27T06:16:18.952Z,25.67
2018-06-27T06:18:47.696Z,25.67
2018-06-27T06:21:16.385Z,25.68
2018-06-27T06:23:45.069Z,25.72
2018-06-27T06:26:13.715Z,25.71
2018-06-27T06:28:42.825Z,25.73
2018-06-27T06:31:11.460Z,25.74
2018-06-27T06:33:40.101Z,25.76
2018-06-27T06:36:08.807Z,25.79
2018-06-27T06:38:37.419Z,25.86
2018-06-27T06:41:06.456Z,25.87
2018-06-27T06:43:35.300Z,25.88
2018-06-27T06:46:03.949Z,25.87
2018-06-27T06:48:32.706Z,25.92
2018-06-27T06:51:01.448Z,25.97
2018-06-27T06:53:30.188Z,25.96
2018-06-27T06:55:58.905Z,25.96
2018-06-27T06:58:27.546Z,25.98
2018-06-27T07:00:56.323Z,25.95
2018-06-27T07:03:25.114Z,25.96
2018-06-27T07:05:53.909Z,25.96
2018-06-27T07:08:22.706Z,25.95
2018-06-27T07:10:51.587Z,25.95
2018-06-27T07:13:20.408Z,25.96
2018-06-27T07:15:49.283Z,25.96
2018-06-27T07:18:17.980Z,25.98
2018-06-27T07:20:46.618Z,25.98
2018-06-27T07:23:15.292Z,25.98
2018-06-27T07:25:43.981Z,26.03
2018-06-27T07:28:13.037Z,26.09
2018-06-27T07:30:41.906Z,26.14
2018-06-27T07:33:10.890Z,26.18
2018-06-27T07:35:39.797Z,26.24
2018-06-27T07:38:08.711Z,26.28
2018-06-27T07:40:37.807Z,26.32
2018-06-27T07:43:06.681Z,26.34
2018-06-27T07:45:35.414Z,26.40
2018-06-27T07:48:04.215Z,26.40
2018-06-27T07:50:33.090Z,26.43
2018-06-27T07:53:01.910Z,26.40
2018-06-27T07:55:30.878Z,26.14
2018-06-27T07:57:59.889Z,26.40
2018-06-27T08:00:28.644Z,26.44
2018-06-27T08:02:57.317Z,26.38
2018-06-27T08:05:26.029Z,26.33
2018-06-27T08:07:54.754Z,26.29
2018-06-27T08:10:23.358Z,26.27
2018-06-27T08:12:51.940Z,26.26
2018-06-27T08:15:20.641Z,26.23
2018-06-27T08:17:49.351Z,26.21
2018-06-27T08:20:18.013Z,26.20
2018-06-27T08:22:46.740Z,26.20
2018-06-27T08:25:15.516Z,26.20
2018-06-27T08:27:44.210Z,26.27
2018-06-27T08:30:12.840Z,26.26
2018-06-27T08:32:41.528Z,26.25
2018-06-27T08:35:10.292Z,26.26
2018-06-27T08:37:38.955Z,26.36
2018-06-27T08:40:07.669Z,26.43
2018-06-27T08:42:36.441Z,26.50
2018-06-27T08:45:05.205Z,26.44
2018-06-27T08:47:34.029Z,26.40
2018-06-27T08:50:02.762Z,26.37
2018-06-27T08:52:31.417Z,26.37
2018-06-27T08:55:00.083Z,26.39
2018-06-27T08:57:28.789Z,26.39
2018-06-27T08:59:57.621Z,26.36
2018-06-27T09:02:26.406Z,26.34
2018-06-27T09:04:55.237Z,26.41
2018-06-27T09:07:23.917Z,26.48
2018-06-27T09:09:52.531Z,26.52
2018-06-27T09:12:21.330Z,26.59
2018-06-27T09:14:49.909Z,26.63
2018-06-27T09:17:18.714Z,26.66
2018-06-27T09:19:47.406Z,26.71
2018-06-27T09:22:16.124Z,26.73
2018-06-27T09:24:44.761Z,26.75
2018-06-27T09:27:13.520Z,26.77
2018-06-27T09:29:42.307Z,26.79
2018-06-27T09:32:10.938Z,26.84
2018-06-27T09:34:39.861Z,26.86
2018-06-27T09:37:08.810Z,26.89
2018-06-27T09:39:37.520Z,26.90
2018-06-27T09:42:06.238Z,26.91
2018-06-27T09:44:34.876Z,26.89
2018-06-27T09:47:03.590Z,26.83
2018-06-27T09:49:32.185Z,26.79
2018-06-27T09:52:00.870Z,26.81
2018-06-27T09:54:29.617Z,26.83
2018-06-27T09:56:58.251Z,26.83
2018-06-27T09:59:26.937Z,26.86
2018-06-27T10:01:55.610Z,26.85
2018-06-27T10:04:24.214Z,26.80
2018-06-27T10:06:52.792Z,26.84
2018-06-27T10:09:21.530Z,26.89
2018-06-27T10:11:50.146Z,26.85
2018-06-27T10:14:18.890Z,26.80
2018-06-27T10:16:47.818Z,26.77
2018-06-27T10:19:16.449Z,26.78
2018-06-27T10:21:45.109Z,26.82
2018-06-27T10:24:13.933Z,26.83
2018-06-27T10:26:42.571Z,26.86
2018-06-27T10:29:11.247Z,26.88
2018-06-27T10:31:40.063Z,26.88
2018-06-27T10:34:08.859Z,26.88
2018-06-27T10:36:37.490Z,26.89
2018-06-27T10:39:09.022Z,26.90
2018-06-27T10:41:37.709Z,26.92
2018-06-27T10:44:06.401Z,26.94
2018-06-27T10:46:35.472Z,26.95
2018-06-27T10:49:04.732Z,26.93
2018-06-27T10:51:33.659Z,26.94
2018-06-27T10:54:02.717Z,26.99
2018-06-27T10:56:31.801Z,27.03
2018-06-27T10:59:00.683Z,27.05
2018-06-27T11:01:29.624Z,27.07
2018-06-27T11:03:58.456Z,27.04
2018-06-27T11:06:27.361Z,27.04
2018-06-27T11:08:56.312Z,27.04
2018-06-27T11:11:24.967Z,27.04
2018-06-27T11:13:53.612Z,27.04
2018-06-27T11:16:22.297Z,27.06
2018-06-27T11:18:51.024Z,27.07
2018-06-27T11:21:19.893Z,27.10
2018-06-27T11:23:48.597Z,27.12
2018-06-27T11:26:17.252Z,27.14
2018-06-27T11:28:45.963Z,27.16
2018-06-27T11:31:14.683Z,27.17
2018-06-27T11:33:43.362Z,27.19
2018-06-27T11:36:12.190Z,27.19
2018-06-27T11:38:41.051Z,27.21
2018-06-27T11:41:09.783Z,27.18
2018-06-27T11:43:38.622Z,27.12
2018-06-27T11:46:08.160Z,27.09
2018-06-27T11:48:37.170Z,27.05
2018-06-27T11:51:06.004Z,21.57
2018-06-27T11:53:35.090Z,27.03
2018-06-27T11:56:04.143Z,27.04
2018-06-27T11:58:33.042Z,27.04
2018-06-27T12:01:02.589Z,27.05
2018-06-27T12:03:31.406Z,27.05
2018-06-27T12:06:00.350Z,27.06
2018-06-27T12:08:29.530Z,27.06
2018-06-27T12:10:58.401Z,27.06
2018-06-27T12:13:27.322Z,27.05
2018-06-27T12:15:56.164Z,27.05
2018-06-27T12:18:24.981Z,27.04
2018-06-27T12:20:53.691Z,27.06
2018-06-27T12:23:22.606Z,27.05
2018-06-27T12:25:51.509Z,27.05
2018-06-27T12:28:20.270Z,27.04
2018-06-27T12:30:49.043Z,27.05
2018-06-27T12:33:17.794Z,27.04
2018-06-27T12:35:46.563Z,27.04
2018-06-27T12:38:15.349Z,27.03
2018-06-27T12:40:44.159Z,27.06
2018-06-27T12:43:12.985Z,27.07
2018-06-27T12:45:41.832Z,24.38
2018-06-27T12:48:10.508Z,27.08
2018-06-27T12:50:39.557Z,27.10
2018-06-27T12:53:08.401Z,27.11
2018-06-27T12:55:37.137Z,27.13
2018-06-27T12:58:06.020Z,27.14
2018-06-27T13:00:34.863Z,27.14
2018-06-27T13:03:03.766Z,27.15
2018-06-27T13:05:32.509Z,27.16
2018-06-27T13:08:01.379Z,27.16
2018-06-27T13:10:30.165Z,27.16
2018-06-27T13:12:59.031Z,27.15
2018-06-27T13:15:27.769Z,27.14
2018-06-27T13:17:56.453Z,27.13
2018-06-27T13:20:25.172Z,27.14
2018-06-27T13:22:53.828Z,27.15
2018-06-27T13:25:22.505Z,27.18
2018-06-27T13:27:51.151Z,27.20
2018-06-27T13:30:19.806Z,27.21
2018-06-27T13:32:48.477Z,27.23
2018-06-27T13:35:17.150Z,27.24
2018-06-27T13:37:45.831Z,27.25
2018-06-27T13:40:14.426Z,27.25
2018-06-27T13:42:43.106Z,27.24
2018-06-27T13:45:12.119Z,27.24
2018-06-27T13:47:40.753Z,27.22
2018-06-27T13:50:09.487Z,27.22
2018-06-27T13:52:38.280Z,27.21
2018-06-27T13:55:07.004Z,27.21
2018-06-27T13:57:35.691Z,27.21
2018-06-27T14:00:04.825Z,27.22
2018-06-27T14:02:33.524Z,27.24
2018-06-27T14:05:02.259Z,27.26
2018-06-27T14:07:30.928Z,27.27
2018-06-27T14:09:59.458Z,27.27
2018-06-27T14:12:27.997Z,27.27
2018-06-27T14:14:56.525Z,27.28
2018-06-27T14:17:25.046Z,27.28
2018-06-27T14:19:53.617Z,27.28
2018-06-27T14:22:22.140Z,27.27
2018-06-27T14:24:50.685Z,27.25
2018-06-27T14:27:19.287Z,27.25
2018-06-27T14:29:47.853Z,27.25
2018-06-27T14:32:16.392Z,27.23
2018-06-27T14:34:44.913Z,27.22
2018-06-27T14:37:13.481Z,27.24
2018-06-27T14:39:42.016Z,27.24
2018-06-27T14:42:10.540Z,27.24
2018-06-27T14:44:39.145Z,27.25
2018-06-27T14:47:07.704Z,27.26
2018-06-27T14:49:36.222Z,27.27
2018-06-27T14:52:04.860Z,27.27
2018-06-27T14:54:33.377Z,27.27
2018-06-27T14:57:01.904Z,27.28
2018-06-27T14:59:30.500Z,27.29
2018-06-27T15:01:59.068Z,27.28
2018-06-27T15:04:27.590Z,27.30
2018-06-27T15:06:56.116Z,27.30
2018-06-27T15:09:24.649Z,27.32
2018-06-27T15:11:53.181Z,27.32
2018-06-27T15:14:21.725Z,27.32
2018-06-27T15:16:50.332Z,27.34
2018-06-27T15:19:18.834Z,27.34
2018-06-27T15:21:47.441Z,27.35
2018-06-27T15:24:16.000Z,27.36
2018-06-27T15:26:44.571Z,27.36
2018-06-27T15:29:13.112Z,27.37
2018-06-27T15:31:41.645Z,27.38
2018-06-27T15:34:10.261Z,27.38
2018-06-27T15:36:38.708Z,27.40
2018-06-27T15:39:08.639Z,27.39
2018-06-27T15:41:37.262Z,27.38
2018-06-27T15:44:06.305Z,27.39
2018-06-27T15:46:34.921Z,27.36
2018-06-27T15:49:03.518Z,27.34
2018-06-27T15:51:32.075Z,27.31
2018-06-27T15:54:00.619Z,27.31
2018-06-27T15:56:29.137Z,27.33
2018-06-27T15:58:57.683Z,27.33
2018-06-27T16:01:26.185Z,27.34
2018-06-27T16:03:54.736Z,27.33
2018-06-27T16:06:23.331Z,27.33
2018-06-27T16:08:51.824Z,27.33
2018-06-27T16:11:20.488Z,27.34
2018-06-27T16:13:48.954Z,27.32
2018-06-27T16:16:17.486Z,27.32
2018-06-27T16:18:46.050Z,27.32
2018-06-27T16:21:14.637Z,27.33
2018-06-27T16:23:43.149Z,27.32
2018-06-27T16:26:11.661Z,27.32
2018-06-27T16:28:40.245Z,27.32
2018-06-27T16:31:08.769Z,27.32
2018-06-27T16:33:37.578Z,27.32
2018-06-27T16:36:06.234Z,27.31
2018-06-27T16:38:34.765Z,27.32
2018-06-27T16:41:03.337Z,27.31
2018-06-27T16:43:32.059Z,27.31
2018-06-27T16:46:00.460Z,27.29
2018-06-27T16:48:28.987Z,27.30
2018-06-27T16:50:57.623Z,27.31
2018-06-27T16:53:26.055Z,27.30
2018-06-27T16:55:54.589Z,27.29
2018-06-27T16:58:23.141Z,27.29
2018-06-27T17:00:51.697Z,27.29
2018-06-27T17:03:20.208Z,27.29
2018-06-27T17:05:48.790Z,27.28
2018-06-27T17:08:17.296Z,27.29
2018-06-27T17:10:45.848Z,27.30
2018-06-27T17:13:14.402Z,27.29
2018-06-27T17:15:43.294Z,27.29
2018-06-27T17:18:11.853Z,27.27
2018-06-27T17:20:40.469Z,27.27
2018-06-27T17:23:08.981Z,27.27
2018-06-27T17:25:37.516Z,27.28
2018-06-27T17:28:06.772Z,27.27
2018-06-27T17:30:35.301Z,27.25
2018-06-27T17:33:03.816Z,27.25
2018-06-27T17:35:32.422Z,27.24
2018-06-27T17:38:00.987Z,27.25
2018-06-27T17:40:29.514Z,27.22
2018-06-27T17:42:58.095Z,27.21
2018-06-27T17:45:26.665Z,27.19
2018-06-27T17:47:55.761Z,27.18
2018-06-27T17:50:24.508Z,27.16
2018-06-27T17:52:53.177Z,26.50
2018-06-27T17:55:22.042Z,27.15
2018-06-27T17:57:50.797Z,27.13
2018-06-27T18:00:19.458Z,27.12
2018-06-27T18:02:48.094Z,27.12
2018-06-27T18:05:16.978Z,27.10
2018-06-27T18:07:45.768Z,27.10
2018-06-27T18:10:14.519Z,27.09
2018-06-27T18:12:43.292Z,27.07
2018-06-27T18:15:12.124Z,22.76
2018-06-27T18:17:40.888Z,27.05
2018-06-27T18:20:09.653Z,27.04
2018-06-27T18:22:38.379Z,27.04
2018-06-27T18:25:07.185Z,27.03
2018-06-27T18:27:36.101Z,27.03
2018-06-27T18:30:05.273Z,27.02
2018-06-27T18:32:34.168Z,27.00
2018-06-27T18:35:02.840Z,27.00
2018-06-27T18:37:31.514Z,27.00
2018-06-27T18:40:00.137Z,26.99
2018-06-27T18:42:28.890Z,26.97
2018-06-27T18:44:57.637Z,26.97
2018-06-27T18:47:26.340Z,26.96
2018-06-27T18:49:55.001Z,26.95
2018-06-27T18:52:23.741Z,26.94
2018-06-27T18:54:52.637Z,26.94
2018-06-27T18:57:21.511Z,26.94
2018-06-27T18:59:50.199Z,26.92
2018-06-27T19:02:19.041Z,26.93
2018-06-27T19:04:47.832Z,26.91
2018-06-27T19:07:16.697Z,26.90
2018-06-27T19:09:45.314Z,26.90
2018-06-27T19:12:14.094Z,26.90
2018-06-27T19:14:42.722Z,26.88
2018-06-27T19:17:11.345Z,26.89
2018-06-27T19:19:40.060Z,26.89
2018-06-27T19:22:08.623Z,26.88
2018-06-27T19:24:38.404Z,26.88
2018-06-27T19:27:07.165Z,26.86
2018-06-27T19:29:35.970Z,26.86
2018-06-27T19:32:04.765Z,26.86
2018-06-27T19:34:33.568Z,26.84
2018-06-27T19:37:02.307Z,26.84
2018-06-27T19:39:37.457Z,26.83
2018-06-27T19:41:59.650Z,26.82
2018-06-27T19:44:28.291Z,26.82
2018-06-27T19:46:57.695Z,26.80
2018-06-27T19:49:26.369Z,26.79
2018-06-27T19:51:55.842Z,26.78
2018-06-27T19:54:24.480Z,26.77
2018-06-27T19:56:53.412Z,26.76
2018-06-27T19:59:22.027Z,26.74
2018-06-27T20:01:50.669Z,26.72
2018-06-27T20:04:19.476Z,26.73
2018-06-27T20:06:48.198Z,26.71
2018-06-27T20:09:16.790Z,26.70
2018-06-27T20:11:45.620Z,26.68
2018-06-27T20:14:14.573Z,26.68
2018-06-27T20:16:43.355Z,26.68
2018-06-27T20:19:12.104Z,26.66
2018-06-27T20:21:40.780Z,26.67
2018-06-27T20:24:09.491Z,26.64
2018-06-27T20:26:38.373Z,26.62
2018-06-27T20:29:07.299Z,26.62
2018-06-27T20:31:35.974Z,26.62
2018-06-27T20:34:05.526Z,26.61
2018-06-27T20:36:34.166Z,26.61
2018-06-27T20:39:03.028Z,26.60
2018-06-27T20:41:31.733Z,26.59
2018-06-27T20:44:00.340Z,26.58
2018-06-27T20:46:28.999Z,26.58
2018-06-27T20:48:57.672Z,26.58
2018-06-27T20:51:26.397Z,26.56
2018-06-27T20:53:55.006Z,26.56
2018-06-27T20:56:23.767Z,26.53
2018-06-27T20:58:52.585Z,26.54
2018-06-27T21:01:21.184Z,26.53
2018-06-27T21:03:50.116Z,26.52
2018-06-27T21:06:18.803Z,26.50
2018-06-27T21:08:47.920Z,26.50
2018-06-27T21:11:16.620Z,26.50
2018-06-27T21:13:45.428Z,26.50
2018-06-27T21:16:14.113Z,26.50
2018-06-27T21:18:42.841Z,26.48
2018-06-27T21:21:11.436Z,26.48
2018-06-27T21:23:40.128Z,26.48
2018-06-27T21:26:08.893Z,26.47
2018-06-27T21:28:37.778Z,26.46
2018-06-27T21:31:06.752Z,26.46
2018-06-27T21:33:35.564Z,26.46
2018-06-27T21:36:04.364Z,26.45
2018-06-27T21:38:33.170Z,26.43
2018-06-27T21:41:02.082Z,26.42
2018-06-27T21:43:30.837Z,26.42
2018-06-27T21:45:59.624Z,26.43
2018-06-27T21:48:28.274Z,26.42
2018-06-27T21:50:56.978Z,26.40
2018-06-27T21:53:25.677Z,26.41
2018-06-27T21:55:54.501Z,26.39
2018-06-27T21:58:23.352Z,26.38
2018-06-27T22:00:52.098Z,26.37
2018-06-27T22:03:20.789Z,26.36
2018-06-27T22:05:49.878Z,26.36
2018-06-27T22:08:18.994Z,26.35
2018-06-27T22:10:47.695Z,26.34
2018-06-27T22:13:16.322Z,26.33
2018-06-27T22:15:44.927Z,26.33
2018-06-27T22:18:13.860Z,26.33
2018-06-27T22:20:42.721Z,26.31
2018-06-27T22:23:11.412Z,26.30
2018-06-27T22:25:40.304Z,26.29
2018-06-27T22:28:08.936Z,26.30
2018-06-27T22:30:37.831Z,26.30
2018-06-27T22:33:06.786Z,26.29
2018-06-27T22:35:35.503Z,26.28
2018-06-27T22:38:04.911Z,26.29
2018-06-27T22:40:33.933Z,26.27
2018-06-27T22:43:08.971Z,26.26
2018-06-27T22:45:37.828Z,26.27
2018-06-27T22:48:07.558Z,26.26
2018-06-27T22:50:36.280Z,26.26
2018-06-27T22:53:05.134Z,26.26
2018-06-27T22:55:33.840Z,26.24
2018-06-27T22:58:02.704Z,26.25
2018-06-27T23:00:31.929Z,26.25
2018-06-27T23:03:00.749Z,26.23
2018-06-27T23:05:29.466Z,26.23
2018-06-27T23:07:58.119Z,26.21
2018-06-27T23:10:27.026Z,26.20
2018-06-27T23:12:56.545Z,26.20
2018-06-27T23:15:25.210Z,26.20
2018-06-27T23:17:53.987Z,26.19
2018-06-27T23:20:22.836Z,26.19
2018-06-27T23:22:51.589Z,26.18
2018-06-27T23:25:20.373Z,26.17
2018-06-27T23:27:49.026Z,26.17
2018-06-27T23:30:17.894Z,26.15
2018-06-27T23:32:46.993Z,26.13
2018-06-27T23:35:15.773Z,26.14
2018-06-27T23:37:44.638Z,26.13
2018-06-27T23:40:13.361Z,26.11
2018-06-27T23:42:42.202Z,26.11
2018-06-27T23:45:10.958Z,26.11
2018-06-27T23:47:39.916Z,26.09
2018-06-27T23:50:08.750Z,26.08
2018-06-27T23:52:37.382Z,26.06
2018-06-27T23:55:06.167Z,26.07
2018-06-27T23:57:34.953Z,26.05
